METAR Data
IDs: Format: Raw Decoded Include TAF

Data at: 2352 UTC 24 Apr 2019

METAR for:KGGI (Grinnell Rgnl, IA, US)
Text:KGGI 242335Z AUTO 15007KT 10SM SCT036 17/11 A2983 RMK AO2 T01700107
Temperature: 17.0°C ( 63°F)
Dewpoint: 10.7°C ( 51°F) [RH = 66%]
Pressure (altimeter):29.83 inches Hg (1010.2 mb)
Winds:from the SSE (150 degrees) at 8 MPH (7 knots; 3.6 m/s)
Visibility:10 or more sm (16+ km)
Ceiling:at least 12,000 feet AGL
Clouds: scattered clouds at 3600 feet AGL
QC Flag:automated observation with no human augmentation